Time;durP1;ratioP1;P1;durP2;ratioP2;P2;SDS_P1;SDS_P2;PMS_P1;PMS_P2;Temp;Humidity;BMP_temperature;BMP_pressure;BME280_temperature;BME280_humidity;BME280_pressure;Samples;Min_cycle;Max_cycle;Signal;HPM_P1;HPM_P2
2023/06/01 00:02:06;;;;;;;5.10;3.75;;;18.50;99.90;;;;;;5069228;28;20036;-52
2023/06/01 00:04:32;;;;;;;6.32;3.28;;;18.60;99.90;;;;;;5065781;28;20074;-51
2023/06/01 00:07:01;;;;;;;5.05;3.20;;;18.60;99.90;;;;;;5065192;28;20419;-53
2023/06/01 00:09:27;;;;;;;4.82;3.08;;;18.70;99.90;;;;;;5066882;28;20040;-48
2023/06/01 00:11:53;;;;;;;5.35;3.30;;;18.70;99.90;;;;;;5068388;28;20043;-52
2023/06/01 00:14:19;;;;;;;5.60;3.25;;;18.70;99.90;;;;;;5067368;28;20416;-53
2023/06/01 00:16:45;;;;;;;4.93;3.13;;;18.70;99.90;;;;;;5036513;28;20035;-52
2023/06/01 00:19:11;;;;;;;6.22;3.35;;;18.70;99.90;;;;;;5065675;28;20041;-50
2023/06/01 00:21:36;;;;;;;3.40;2.55;;;18.60;99.90;;;;;;5065914;28;20115;-52
2023/06/01 00:24:02;;;;;;;5.68;2.90;;;18.60;99.90;;;;;;5062200;28;20468;-52
2023/06/01 00:26:31;;;;;;;6.47;3.60;;;18.60;99.90;;;;;;5062030;28;20029;-51
2023/06/01 00:28:58;;;;;;;6.88;3.28;;;18.60;99.90;;;;;;5066880;28;20040;-52
2023/06/01 00:31:24;;;;;;;7.03;3.03;;;18.60;99.90;;;;;;5053224;28;20123;-52
2023/06/01 00:33:50;;;;;;;5.05;3.33;;;18.60;99.90;;;;;;5062586;28;20115;-52
2023/06/01 00:36:16;;;;;;;7.13;3.72;;;18.70;99.90;;;;;;5068612;28;20043;-54
2023/06/01 00:38:42;;;;;;;5.22;2.92;;;18.70;99.90;;;;;;5066018;28;20036;-50
2023/06/01 00:41:07;;;;;;;5.50;2.92;;;18.60;99.90;;;;;;5067183;28;20476;-53
2023/06/01 00:43:33;;;;;;;5.30;3.30;;;18.50;99.90;;;;;;5064240;28;20387;-50
2023/06/01 00:45:59;;;;;;;6.13;4.35;;;18.40;99.90;;;;;;5053215;28;20075;-49
2023/06/01 00:48:25;;;;;;;6.43;3.60;;;18.40;99.90;;;;;;5069515;28;20037;-50
2023/06/01 00:50:51;;;;;;;5.70;3.67;;;18.30;99.90;;;;;;5065791;28;20553;-51
2023/06/01 00:53:19;;;;;;;4.25;3.10;;;18.30;99.90;;;;;;5064532;28;20037;-54
2023/06/01 00:55:46;;;;;;;6.60;3.80;;;18.30;99.90;;;;;;5062406;28;20533;-54
2023/06/01 00:58:15;;;;;;;7.10;4.60;;;18.40;99.90;;;;;;5053743;28;20055;-54
2023/06/01 01:00:47;;;;;;;8.23;3.80;;;18.40;99.90;;;;;;5065211;28;20028;-53
2023/06/01 01:03:15;;;;;;;6.40;3.55;;;18.30;99.90;;;;;;5062665;28;20045;-51
2023/06/01 01:05:41;;;;;;;7.00;4.25;;;18.30;99.90;;;;;;5064440;28;20094;-51
2023/06/01 01:08:13;;;;;;;5.50;3.33;;;18.20;99.90;;;;;;5049189;28;20464;-50
2023/06/01 01:10:45;;;;;;;4.75;2.95;;;18.10;99.90;;;;;;5071271;28;20032;-50
2023/06/01 01:13:18;;;;;;;5.18;3.40;;;18.20;99.90;;;;;;5063917;28;20492;-51
2023/06/01 01:16:24;;;;;;;7.00;3.50;;;18.30;99.90;;;;;;5058916;28;20350;-53
2023/06/01 01:19:16;;;;;;;6.10;3.25;;;18.30;99.90;;;;;;5011903;28;20077;-53
2023/06/01 01:21:50;;;;;;;5.43;3.33;;;18.30;99.90;;;;;;5010323;28;20501;-50
2023/06/01 01:24:54;;;;;;;4.97;3.45;;;18.10;99.90;;;;;;4976843;28;20116;-56
2023/06/01 01:28:01;;;;;;;5.32;3.25;;;18.00;99.90;;;;;;5010511;28;20040;-49
2023/06/01 01:30:28;;;;;;;4.97;3.28;;;17.90;99.90;;;;;;5002164;28;20062;-54
2023/06/01 01:32:55;;;;;;;4.20;2.85;;;17.90;99.90;;;;;;4976222;28;20038;-49
2023/06/01 01:35:24;;;;;;;6.38;3.90;;;17.70;99.90;;;;;;4970184;28;20042;-51
2023/06/01 01:37:54;;;;;;;6.03;3.72;;;17.70;99.90;;;;;;4989733;28;20065;-54
2023/06/01 01:40:20;;;;;;;5.80;3.65;;;17.90;99.90;;;;;;5000864;28;20042;-53
2023/06/01 01:42:48;;;;;;;5.97;3.45;;;17.70;99.90;;;;;;4998070;28;20057;-55
2023/06/01 01:45:15;;;;;;;6.32;3.92;;;17.50;99.90;;;;;;4994298;28;20030;-51
2023/06/01 01:47:50;;;;;;;8.57;4.25;;;17.40;99.90;;;;;;4998335;28;20391;-50
2023/06/01 01:50:21;;;;;;;7.43;3.55;;;17.30;99.90;;;;;;4996359;28;20409;-51
2023/06/01 01:52:48;;;;;;;5.47;3.45;;;17.30;99.90;;;;;;4993074;28;20045;-54
2023/06/01 01:55:15;;;;;;;7.00;3.50;;;17.30;99.90;;;;;;5042772;28;20052;-55
2023/06/01 01:57:42;;;;;;;5.72;3.53;;;17.40;99.90;;;;;;5046438;28;20037;-50
2023/06/01 02:00:11;;;;;;;6.18;3.63;;;17.50;99.90;;;;;;5014977;28;20033;-52
2023/06/01 02:02:37;;;;;;;8.57;3.63;;;17.50;99.90;;;;;;5036376;28;20052;-53
2023/06/01 02:05:03;;;;;;;6.05;3.50;;;17.70;99.90;;;;;;5071711;28;20055;-53
2023/06/01 02:07:29;;;;;;;7.40;3.80;;;17.80;99.90;;;;;;5038956;28;20043;-50
2023/06/01 02:09:54;;;;;;;6.22;4.30;;;17.80;99.90;;;;;;5072388;28;20099;-52
2023/06/01 02:12:20;;;;;;;7.03;4.20;;;18.00;99.90;;;;;;5062511;28;20052;-52
2023/06/01 02:14:46;;;;;;;6.68;3.72;;;17.90;99.90;;;;;;5070037;28;20028;-52
2023/06/01 02:17:15;;;;;;;6.70;3.88;;;17.90;99.90;;;;;;5070869;28;20501;-50
2023/06/01 02:19:42;;;;;;;6.25;4.22;;;17.80;99.90;;;;;;5066230;28;20036;-50
2023/06/01 02:22:08;;;;;;;5.88;4.07;;;17.60;99.90;;;;;;5069903;28;20047;-54
2023/06/01 02:24:34;;;;;;;6.95;4.15;;;17.50;99.90;;;;;;5066771;28;20108;-53
2023/06/01 02:27:00;;;;;;;6.75;4.15;;;17.40;99.90;;;;;;5052838;28;20075;-54
2023/06/01 02:29:26;;;;;;;7.85;4.28;;;17.40;99.90;;;;;;5072441;28;20032;-48
2023/06/01 02:31:52;;;;;;;6.18;3.92;;;17.40;99.90;;;;;;5063672;28;20059;-54
2023/06/01 02:34:18;;;;;;;5.68;3.72;;;17.60;99.90;;;;;;5070073;28;20033;-54
2023/06/01 02:36:44;;;;;;;6.55;3.47;;;17.80;99.90;;;;;;5073475;28;20033;-52
2023/06/01 02:39:10;;;;;;;6.18;3.70;;;17.80;99.90;;;;;;5063796;28;20587;-52
2023/06/01 02:41:36;;;;;;;5.18;3.47;;;17.90;99.90;;;;;;5072622;28;20103;-55
2023/06/01 02:44:02;;;;;;;4.82;3.30;;;17.90;99.90;;;;;;5070986;28;20392;-51
2023/06/01 02:46:28;;;;;;;5.07;3.53;;;17.90;99.90;;;;;;5069748;28;20430;-53
2023/06/01 02:48:54;;;;;;;5.30;3.33;;;17.70;99.90;;;;;;5063574;28;20040;-53
2023/06/01 02:51:19;;;;;;;6.68;3.55;;;17.50;99.90;;;;;;5064502;28;20033;-49
2023/06/01 02:53:48;;;;;;;5.15;3.17;;;17.50;99.90;;;;;;5051252;28;20037;-55
2023/06/01 02:56:15;;;;;;;4.82;3.22;;;17.50;99.90;;;;;;5073085;28;20376;-53
2023/06/01 02:58:42;;;;;;;6.35;3.58;;;17.60;99.90;;;;;;5063461;28;20491;-53
2023/06/01 03:01:11;;;;;;;7.68;3.78;;;17.30;99.90;;;;;;5065519;28;20036;-53
2023/06/01 03:03:38;;;;;;;6.80;3.95;;;17.10;99.90;;;;;;5065746;28;20045;-49
2023/06/01 03:06:05;;;;;;;5.88;3.17;;;17.10;99.90;;;;;;5068384;28;20379;-55
2023/06/01 03:08:32;;;;;;;6.38;3.65;;;17.10;99.90;;;;;;5019198;28;20041;-52
2023/06/01 03:10:58;;;;;;;5.72;3.38;;;17.10;99.90;;;;;;5064285;28;20029;-50
2023/06/01 03:13:23;;;;;;;6.57;3.58;;;17.10;99.90;;;;;;5053927;28;20483;-51
2023/06/01 03:15:50;;;;;;;4.93;3.40;;;16.90;99.90;;;;;;5053160;28;20031;-52
2023/06/01 03:18:16;;;;;;;10.32;3.72;;;16.70;99.90;;;;;;5063612;28;20032;-49
2023/06/01 03:20:42;;;;;;;7.15;3.97;;;16.80;99.90;;;;;;5071896;28;20610;-55
2023/06/01 03:23:08;;;;;;;7.15;3.92;;;16.80;99.90;;;;;;5065244;28;20020;-53
2023/06/01 03:25:33;;;;;;;6.93;4.18;;;17.00;99.90;;;;;;5070756;28;20089;-50
2023/06/01 03:27:59;;;;;;;8.02;4.07;;;17.30;99.90;;;;;;5066307;28;20024;-53
2023/06/01 03:30:25;;;;;;;6.68;3.47;;;17.40;99.90;;;;;;5060733;28;20037;-54
2023/06/01 03:32:51;;;;;;;7.05;3.90;;;17.60;99.90;;;;;;5063455;28;20033;-53
2023/06/01 03:35:17;;;;;;;6.55;4.20;;;17.60;99.90;;;;;;5051832;28;20039;-52
2023/06/01 03:37:45;;;;;;;6.72;3.63;;;17.70;99.90;;;;;;5065418;28;20376;-49
2023/06/01 03:40:11;;;;;;;7.80;4.05;;;17.80;99.90;;;;;;5065611;28;20028;-56
2023/06/01 03:42:48;;;;;;;6.60;3.97;;;17.90;99.90;;;;;;5069618;28;20032;-53
2023/06/01 03:45:16;;;;;;;5.97;3.88;;;17.90;99.90;;;;;;5068028;28;20054;-54
2023/06/01 03:47:42;;;;;;;5.53;3.95;;;18.00;99.90;;;;;;5061975;28;20044;-53
2023/06/01 03:50:09;;;;;;;7.53;5.18;;;17.90;99.90;;;;;;5068320;28;20025;-52
2023/06/01 03:52:35;;;;;;;8.45;4.13;;;17.80;99.90;;;;;;5052895;28;21240;-53
2023/06/01 03:55:09;;;;;;;6.47;3.78;;;17.80;99.90;;;;;;5067500;28;20063;-51
2023/06/01 03:57:36;;;;;;;7.25;4.45;;;17.60;99.90;;;;;;5052221;28;20052;-50
2023/06/01 04:00:17;;;;;;;8.18;4.88;;;17.80;99.90;;;;;;5057639;28;20067;-55
2023/06/01 04:02:46;;;;;;;6.60;4.15;;;18.00;99.90;;;;;;5054494;28;20049;-53
2023/06/01 04:05:16;;;;;;;6.15;3.53;;;17.90;99.90;;;;;;5063870;28;20036;-55
2023/06/01 04:07:46;;;;;;;8.65;4.85;;;17.80;99.90;;;;;;5067357;28;20045;-53
2023/06/01 04:10:13;;;;;;;7.88;4.53;;;17.70;99.90;;;;;;5061147;28;20029;-52
2023/06/01 04:12:41;;;;;;;8.27;4.65;;;17.90;99.90;;;;;;5064044;28;20045;-53
2023/06/01 04:15:08;;;;;;;7.18;4.63;;;18.10;99.90;;;;;;5060869;28;20032;-53
2023/06/01 04:17:37;;;;;;;6.05;4.00;;;18.00;99.90;;;;;;5055634;28;20045;-53
2023/06/01 04:20:06;;;;;;;7.13;4.55;;;17.80;99.90;;;;;;5067189;28;20025;-51
2023/06/01 04:22:32;;;;;;;8.07;4.40;;;17.90;99.90;;;;;;5051006;28;20041;-52
2023/06/01 04:24:58;;;;;;;7.40;4.40;;;18.00;99.90;;;;;;5069071;28;20071;-53
2023/06/01 04:27:24;;;;;;;8.25;5.43;;;18.30;99.90;;;;;;5067483;28;20364;-51
2023/06/01 04:29:51;;;;;;;5.30;3.58;;;18.50;99.90;;;;;;5063745;28;20020;-52
2023/06/01 04:32:21;;;;;;;7.68;4.43;;;18.60;99.90;;;;;;5065500;28;20049;-53
2023/06/01 04:34:50;;;;;;;6.35;3.88;;;18.80;99.90;;;;;;5059342;28;20115;-51
2023/06/01 04:37:21;;;;;;;7.80;4.38;;;18.90;99.90;;;;;;5063612;28;20036;-54
2023/06/01 04:39:51;;;;;;;7.85;3.97;;;19.00;99.90;;;;;;5067931;28;20094;-54
2023/06/01 04:42:18;;;;;;;6.45;4.05;;;18.90;99.90;;;;;;5075531;28;20044;-57
2023/06/01 04:44:46;;;;;;;7.18;5.20;;;18.50;99.90;;;;;;5067656;28;20032;-52
2023/06/01 04:47:12;;;;;;;6.47;4.57;;;18.30;99.90;;;;;;5067367;28;20040;-54
2023/06/01 04:49:41;;;;;;;7.63;4.93;;;18.40;99.90;;;;;;5070537;28;20526;-52
2023/06/01 04:52:07;;;;;;;8.63;4.55;;;18.20;99.90;;;;;;5067087;28;20046;-53
2023/06/01 04:54:33;;;;;;;7.97;4.55;;;18.00;99.90;;;;;;5064585;28;20035;-54
2023/06/01 04:56:59;;;;;;;6.82;4.15;;;18.10;99.90;;;;;;5068513;28;20028;-52
2023/06/01 04:59:25;;;;;;;6.97;4.50;;;18.10;99.90;;;;;;5062565;28;20044;-51
2023/06/01 05:01:51;;;;;;;7.45;4.72;;;18.50;99.90;;;;;;5065944;28;20024;-51
2023/06/01 05:04:17;;;;;;;6.05;4.07;;;18.80;99.90;;;;;;5067888;28;20373;-49
2023/06/01 05:06:43;;;;;;;6.90;4.57;;;19.10;99.90;;;;;;5060229;28;20055;-52
2023/06/01 05:09:08;;;;;;;6.22;4.10;;;19.40;99.90;;;;;;5059335;28;20051;-53
2023/06/01 05:11:34;;;;;;;6.97;4.30;;;19.60;99.90;;;;;;5049444;28;20125;-54
2023/06/01 05:14:02;;;;;;;6.72;4.45;;;19.80;99.90;;;;;;5062581;28;20512;-51
2023/06/01 05:16:28;;;;;;;6.15;4.50;;;19.90;99.90;;;;;;5061439;28;20090;-51
2023/06/01 05:18:55;;;;;;;6.35;4.38;;;20.10;99.90;;;;;;5066344;28;20036;-54
2023/06/01 05:21:21;;;;;;;7.72;4.63;;;20.30;99.90;;;;;;5068155;28;20110;-52
2023/06/01 05:23:47;;;;;;;8.30;4.30;;;;;;;;;;5072072;28;20388;-51
2023/06/01 05:26:13;;;;;;;5.20;4.18;;;20.50;99.90;;;;;;5067588;28;20036;-50
2023/06/01 05:28:39;;;;;;;5.75;4.40;;;20.50;99.90;;;;;;5064253;28;20032;-51
2023/06/01 05:31:05;;;;;;;7.28;4.45;;;20.60;99.90;;;;;;5063084;28;20020;-53
2023/06/01 05:33:31;;;;;;;5.35;4.03;;;20.70;99.90;;;;;;5070935;28;20051;-52
2023/06/01 05:35:56;;;;;;;6.55;4.45;;;20.80;99.90;;;;;;5066299;28;20503;-52
2023/06/01 05:38:22;;;;;;;6.93;4.15;;;20.90;99.90;;;;;;5064177;28;20040;-52
2023/06/01 05:40:48;;;;;;;5.28;3.53;;;21.10;99.90;;;;;;5055001;28;20025;-53
2023/06/01 05:43:15;;;;;;;6.95;3.70;;;21.20;99.90;;;;;;5068931;28;20036;-52
2023/06/01 05:45:41;;;;;;;6.45;3.97;;;21.30;99.90;;;;;;5052463;28;20499;-54
2023/06/01 05:48:06;;;;;;;4.88;3.15;;;21.00;99.90;;;;;;5053563;28;20037;-51
2023/06/01 05:50:32;;;;;;;7.30;3.80;;;21.20;99.90;;;;;;5047315;28;20037;-53
2023/06/01 05:52:58;;;;;;;6.50;3.65;;;21.30;99.90;;;;;;5043262;28;20049;-52
2023/06/01 05:55:24;;;;;;;5.90;4.32;;;21.40;99.90;;;;;;5020520;28;20119;-49
2023/06/01 05:57:50;;;;;;;4.75;3.42;;;21.50;99.90;;;;;;5041645;28;20469;-50
2023/06/01 06:00:16;;;;;;;6.28;3.70;;;21.70;99.90;;;;;;5041735;28;20095;-51
2023/06/01 06:02:43;;;;;;;5.38;3.38;;;21.70;99.90;;;;;;5020425;28;20055;-52
2023/06/01 06:05:09;;;;;;;5.50;3.83;;;21.80;99.90;;;;;;5047764;28;20432;-55
2023/06/01 06:07:35;;;;;;;4.72;3.35;;;21.70;99.90;;;;;;5012157;28;20400;-52
2023/06/01 06:10:01;;;;;;;5.07;3.33;;;21.60;99.90;;;;;;5045122;28;20651;-53
2023/06/01 06:12:27;;;;;;;6.30;4.07;;;21.80;99.90;;;;;;5051027;28;20131;-52
2023/06/01 06:14:53;;;;;;;4.97;3.40;;;21.70;99.90;;;;;;5045142;28;20381;-51
2023/06/01 06:17:19;;;;;;;5.63;3.70;;;21.80;99.90;;;;;;5062995;28;20488;-49
2023/06/01 06:19:47;;;;;;;5.20;3.50;;;21.90;99.90;;;;;;5069241;28;20050;-54
2023/06/01 06:22:13;;;;;;;4.65;3.03;;;22.00;99.90;;;;;;5072962;28;20025;-51
2023/06/01 06:24:39;;;;;;;6.10;3.55;;;22.10;99.90;;;;;;5065697;28;20039;-51
2023/06/01 06:27:06;;;;;;;3.50;2.60;;;22.20;99.90;;;;;;5071768;28;20047;-53
2023/06/01 06:29:32;;;;;;;5.38;3.22;;;;;;;;;;5040772;28;20037;-53
2023/06/01 06:31:58;;;;;;;4.57;2.90;;;22.40;99.90;;;;;;5063620;28;20047;-52
2023/06/01 06:34:24;;;;;;;4.55;2.80;;;22.40;99.90;;;;;;5066181;28;20021;-50
2023/06/01 06:36:52;;;;;;;3.35;2.67;;;22.60;99.90;;;;;;5063156;28;20029;-51
2023/06/01 06:39:18;;;;;;;4.13;3.33;;;22.30;99.90;;;;;;5059461;28;20090;-52
2023/06/01 06:41:44;;;;;;;3.95;2.80;;;;;;;;;;5072397;28;20023;-53
2023/06/01 06:44:10;;;;;;;5.63;3.33;;;;;;;;;;5065658;28;20025;-52
2023/06/01 06:46:37;;;;;;;4.20;3.35;;;;;;;;;;5070409;28;20037;-55
2023/06/01 06:49:03;;;;;;;5.30;3.40;;;;;;;;;;5067526;28;20029;-54
2023/06/01 06:51:28;;;;;;;4.15;2.83;;;22.80;99.90;;;;;;5072234;28;20109;-52
2023/06/01 06:53:54;;;;;;;3.63;2.97;;;;;;;;;;5036579;28;20768;-50
2023/06/01 06:56:20;;;;;;;4.78;3.45;;;23.00;99.90;;;;;;5073456;28;20437;-53
2023/06/01 06:58:47;;;;;;;4.32;3.33;;;;;;;;;;5065995;28;20064;-51
2023/06/01 07:01:13;;;;;;;5.55;3.65;;;;;;;;;;5067862;28;20033;-51
2023/06/01 07:03:40;;;;;;;4.72;3.38;;;23.30;99.90;;;;;;5073121;28;20063;-50
2023/06/01 07:06:06;;;;;;;5.68;3.63;;;23.40;99.90;;;;;;5053389;28;20088;-51
2023/06/01 07:08:34;;;;;;;5.25;3.45;;;;;;;;;;5065759;28;20475;-49
2023/06/01 07:11:00;;;;;;;5.35;3.85;;;23.50;99.90;;;;;;5066883;28;20052;-51
2023/06/01 07:13:26;;;;;;;6.45;3.58;;;23.40;99.90;;;;;;5063356;28;20033;-49
2023/06/01 07:15:55;;;;;;;6.10;3.63;;;23.50;99.90;;;;;;5062843;28;20048;-55
2023/06/01 07:18:20;;;;;;;5.78;3.80;;;23.30;99.90;;;;;;5063858;28;20499;-51
2023/06/01 07:20:46;;;;;;;4.57;3.33;;;23.30;99.90;;;;;;5067896;28;20115;-53
2023/06/01 07:23:12;;;;;;;5.47;3.75;;;23.40;99.90;;;;;;5065536;28;20036;-50
2023/06/01 07:25:38;;;;;;;4.63;3.45;;;23.50;99.90;;;;;;5063240;28;20040;-54
2023/06/01 07:28:08;;;;;;;4.47;3.28;;;23.60;99.90;;;;;;5064828;28;20029;-51
2023/06/01 07:30:34;;;;;;;4.43;3.05;;;23.70;99.90;;;;;;5066569;28;20545;-52
2023/06/01 07:33:02;;;;;;;4.05;3.45;;;;;;;;;;5068029;28;20037;-50
2023/06/01 07:35:29;;;;;;;4.53;3.40;;;24.40;99.90;;;;;;5071053;28;20033;-52
2023/06/01 07:37:55;;;;;;;6.00;4.03;;;24.50;99.90;;;;;;5034013;28;20062;-48
2023/06/01 07:40:21;;;;;;;4.53;3.20;;;24.40;99.90;;;;;;5067900;28;20040;-50
2023/06/01 07:42:47;;;;;;;5.32;3.85;;;;;;;;;;5072465;28;20024;-50
2023/06/01 07:45:13;;;;;;;6.38;3.70;;;;;;;;;;5066767;28;20065;-48
2023/06/01 07:47:39;;;;;;;4.82;3.40;;;24.90;99.90;;;;;;5057547;28;20044;-51
2023/06/01 07:50:06;;;;;;;5.97;4.38;;;24.90;99.90;;;;;;5065633;28;20070;-49
2023/06/01 07:52:32;;;;;;;5.22;3.92;;;24.80;99.90;;;;;;5060516;28;20433;-52
2023/06/01 07:54:58;;;;;;;5.90;4.45;;;24.80;99.90;;;;;;5068084;28;20166;-50
2023/06/01 07:57:24;;;;;;;6.75;4.32;;;24.90;99.90;;;;;;5070077;28;20047;-51
2023/06/01 07:59:50;;;;;;;5.45;4.43;;;24.90;99.90;;;;;;5060402;28;20067;-51
2023/06/01 08:02:16;;;;;;;7.35;4.20;;;25.00;99.90;;;;;;5071232;28;20044;-52
2023/06/01 08:04:41;;;;;;;6.78;4.45;;;24.60;99.90;;;;;;5070288;28;21050;-49
2023/06/01 08:07:08;;;;;;;5.90;4.45;;;24.50;99.90;;;;;;5064611;28;20025;-52
2023/06/01 08:09:37;;;;;;;7.00;4.65;;;;;;;;;;5061404;28;20052;-52
2023/06/01 08:12:03;;;;;;;5.50;4.15;;;24.90;99.90;;;;;;5068302;28;20032;-51
2023/06/01 08:14:31;;;;;;;6.57;4.45;;;25.20;99.90;;;;;;5053480;28;20467;-51
2023/06/01 08:16:58;;;;;;;7.43;4.30;;;;;;;;;;5064620;28;20029;-50
2023/06/01 08:19:24;;;;;;;7.45;4.50;;;;;;;;;;5067544;28;20101;-53
2023/06/01 08:21:49;;;;;;;8.80;4.57;;;25.60;99.90;;;;;;5063498;28;20024;-52
2023/06/01 08:24:16;;;;;;;7.20;5.18;;;25.70;99.90;;;;;;5065206;28;20143;-54
2023/06/01 08:27:04;;;;;;;6.45;4.85;;;25.30;99.90;;;;;;5071703;28;20035;-53
2023/06/01 08:29:31;;;;;;;6.20;4.90;;;25.30;99.90;;;;;;5048852;28;20088;-52
2023/06/01 08:31:59;;;;;;;7.00;4.60;;;25.20;99.90;;;;;;5049162;28;20055;-50
2023/06/01 08:34:25;;;;;;;7.70;5.05;;;;;;;;;;5050020;28;20124;-50
2023/06/01 08:36:51;;;;;;;7.55;4.22;;;;;;;;;;5024723;28;20053;-55
2023/06/01 08:39:22;;;;;;;5.55;4.95;;;25.40;99.90;;;;;;5049524;28;20095;-51
2023/06/01 08:42:20;;;;;;;7.00;4.72;;;25.60;99.90;;;;;;5024470;28;20060;-53
2023/06/01 08:44:46;;;;;;;7.40;5.00;;;25.50;99.90;;;;;;5049165;28;20045;-49
2023/06/01 08:47:13;;;;;;;6.85;4.70;;;25.60;99.90;;;;;;5049662;28;20027;-51
2023/06/01 08:49:42;;;;;;;6.57;4.97;;;25.70;99.90;;;;;;5049319;28;20075;-52
2023/06/01 08:52:11;;;;;;;7.75;5.45;;;;;;;;;;5049114;28;20401;-53
2023/06/01 08:54:38;;;;;;;5.75;4.40;;;26.10;99.90;;;;;;5049044;28;20171;-53
2023/06/01 08:57:07;;;;;;;5.80;4.70;;;26.10;99.90;;;;;;5047747;28;20036;-51
2023/06/01 08:59:34;;;;;;;5.57;4.65;;;;;;;;;;5051015;28;20491;-51
2023/06/01 09:02:01;;;;;;;6.57;4.80;;;;;;;;;;5063031;28;20052;-50
2023/06/01 09:04:27;;;;;;;7.03;4.32;;;26.20;99.90;;;;;;5050975;28;20033;-51
2023/06/01 09:06:53;;;;;;;6.07;4.40;;;;;;;;;;5062515;28;20073;-55
2023/06/01 09:09:19;;;;;;;5.78;4.20;;;26.40;99.90;;;;;;5059919;28;20400;-52
2023/06/01 09:11:44;;;;;;;6.75;4.40;;;26.20;99.90;;;;;;5067373;28;20021;-49
2023/06/01 09:14:24;;;;;;;6.38;4.72;;;26.30;99.90;;;;;;5064830;28;20029;-54
2023/06/01 09:16:51;;;;;;;7.28;5.03;;;26.60;99.90;;;;;;5066086;28;20037;-52
2023/06/01 09:19:20;;;;;;;8.65;5.82;;;26.60;99.90;;;;;;5063368;28;20169;-51
2023/06/01 09:21:59;;;;;;;13.27;5.22;;;26.60;99.90;;;;;;5058688;28;20028;-51
2023/06/01 09:24:25;;;;;;;5.70;4.72;;;;;;;;;;5062902;28;20079;-49
2023/06/01 09:26:58;;;;;;;8.13;5.22;;;27.20;99.90;;;;;;5065708;28;20127;-54
2023/06/01 09:29:25;;;;;;;8.15;5.70;;;;;;;;;;5066917;28;20040;-49
2023/06/01 09:31:50;;;;;;;8.75;5.68;;;27.80;99.90;;;;;;5046805;28;20036;-51
2023/06/01 09:34:19;;;;;;;7.72;6.30;;;27.80;99.90;;;;;;5068463;28;20082;-52
2023/06/01 09:36:53;;;;;;;8.25;5.50;;;27.60;99.90;;;;;;5058767;28;20028;-53
2023/06/01 09:39:21;;;;;;;7.10;4.97;;;28.00;99.90;;;;;;5060568;28;20056;-52
2023/06/01 09:41:54;;;;;;;7.07;5.50;;;28.10;99.90;;;;;;5065649;28;20032;-49
2023/06/01 09:44:31;;;;;;;5.28;4.63;;;28.10;99.90;;;;;;5064991;28;20024;-53
2023/06/01 09:46:59;;;;;;;7.28;5.57;;;28.20;99.90;;;;;;5067099;28;20426;-52
2023/06/01 09:49:28;;;;;;;6.47;4.78;;;28.40;99.90;;;;;;5063238;28;20086;-52
2023/06/01 09:52:09;;;;;;;7.78;5.75;;;28.40;99.90;;;;;;5061707;28;20378;-51
2023/06/01 09:54:40;;;;;;;7.18;4.90;;;28.60;99.90;;;;;;5066809;28;20029;-50
2023/06/01 09:57:07;;;;;;;6.53;5.38;;;28.60;99.90;;;;;;5068136;28;20028;-50
2023/06/01 09:59:41;;;;;;;8.23;5.93;;;28.50;99.90;;;;;;5068348;28;20041;-51
2023/06/01 10:02:10;;;;;;;6.60;5.63;;;28.60;99.90;;;;;;5063618;28;20056;-52
2023/06/01 10:04:40;;;;;;;10.38;5.80;;;28.50;99.90;;;;;;5067741;28;20025;-51
2023/06/01 10:07:07;;;;;;;6.95;6.13;;;28.60;99.90;;;;;;5049265;28;20024;-52
2023/06/01 10:09:35;;;;;;;7.72;5.60;;;28.60;99.90;;;;;;5070933;28;20028;-50
2023/06/01 10:12:02;;;;;;;9.05;5.90;;;28.50;99.90;;;;;;5054343;28;20499;-49
2023/06/01 10:14:27;;;;;;;7.88;5.18;;;28.80;99.90;;;;;;5065462;28;20040;-49
2023/06/01 10:16:53;;;;;;;7.32;5.63;;;28.80;99.90;;;;;;5052465;28;20033;-49
2023/06/01 10:19:21;;;;;;;7.05;5.47;;;28.50;99.90;;;;;;5071443;28;20028;-49
2023/06/01 10:21:47;;;;;;;6.60;5.30;;;28.80;99.90;;;;;;5051277;28;20044;-50
2023/06/01 10:24:19;;;;;;;8.13;5.80;;;28.70;99.90;;;;;;5066843;28;20020;-50
2023/06/01 10:27:02;;;;;;;6.55;5.13;;;28.80;99.90;;;;;;5071706;28;20102;-49
2023/06/01 10:29:30;;;;;;;6.40;5.57;;;28.50;99.90;;;;;;5062419;28;20041;-52
2023/06/01 10:31:57;;;;;;;26.17;10.43;;;28.70;99.90;;;;;;5072998;28;20037;-50
2023/06/01 10:34:47;;;;;;;13.30;7.47;;;28.50;99.90;;;;;;5055147;28;20047;-53
2023/06/01 10:37:16;;;;;;;11.00;6.10;;;28.50;99.90;;;;;;5063331;28;20017;-51
2023/06/01 10:39:42;;;;;;;10.02;6.85;;;28.60;99.90;;;;;;5062756;28;20033;-53
2023/06/01 10:42:14;;;;;;;8.25;6.28;;;28.90;99.90;;;;;;5052341;28;20036;-50
2023/06/01 10:44:42;;;;;;;9.82;6.28;;;28.90;99.90;;;;;;5068052;28;20024;-52
2023/06/01 10:47:11;;;;;;;7.53;6.57;;;28.80;99.90;;;;;;5071980;28;20028;-51
2023/06/01 10:49:49;;;;;;;6.15;5.25;;;28.90;99.90;;;;;;5069808;28;20050;-50
2023/06/01 10:52:35;;;;;;;10.32;6.55;;;28.90;99.90;;;;;;5070008;28;20032;-52
2023/06/01 10:55:10;;;;;;;7.13;5.72;;;28.90;99.90;;;;;;5069510;28;20032;-51
2023/06/01 10:57:45;;;;;;;7.63;5.95;;;28.70;99.90;;;;;;5073389;28;20051;-52
2023/06/01 11:00:12;;;;;;;7.68;6.45;;;28.50;99.90;;;;;;5067091;28;20035;-52
2023/06/01 11:03:00;;;;;;;5.88;5.28;;;28.20;99.90;;;;;;5072128;28;20114;-54
2023/06/01 11:05:51;;;;;;;9.27;5.70;;;28.20;99.90;;;;;;5064683;28;20024;-53
2023/06/01 11:08:20;;;;;;;8.68;5.75;;;28.20;99.90;;;;;;5067079;28;20547;-49
2023/06/01 11:10:55;;;;;;;6.70;5.38;;;28.20;99.90;;;;;;5070289;28;20044;-53
2023/06/01 11:13:24;;;;;;;8.38;6.15;;;28.40;99.90;;;;;;5059026;28;20079;-49
2023/06/01 11:16:09;;;;;;;9.20;6.32;;;28.80;99.90;;;;;;5064242;28;20039;-51
2023/06/01 11:18:41;;;;;;;9.48;5.85;;;28.30;99.90;;;;;;5064729;28;20044;-49
2023/06/01 11:21:24;;;;;;;6.82;5.43;;;28.90;99.90;;;;;;5065412;28;20372;-50
2023/06/01 11:23:51;;;;;;;8.18;6.10;;;29.20;99.90;;;;;;5064197;28;20103;-51
2023/06/01 11:26:21;;;;;;;10.00;6.40;;;29.60;99.90;;;;;;5063308;28;20419;-53
2023/06/01 11:28:48;;;;;;;7.00;5.38;;;29.70;99.90;;;;;;5068632;28;20115;-52
2023/06/01 11:31:16;;;;;;;6.07;5.45;;;29.60;99.90;;;;;;5064730;28;20032;-51
2023/06/01 11:33:56;;;;;;;6.00;5.28;;;29.70;99.90;;;;;;5069298;28;20056;-51
2023/06/01 11:36:26;;;;;;;5.30;4.75;;;29.60;99.90;;;;;;5064634;28;20036;-49
2023/06/01 11:38:53;;;;;;;5.10;4.60;;;29.70;99.90;;;;;;5064040;28;20611;-50
2023/06/01 11:41:23;;;;;;;6.10;5.03;;;;;;;;;;5070393;28;20033;-50
2023/06/01 11:43:56;;;;;;;5.30;4.38;;;30.20;99.90;;;;;;5069163;28;20431;-52
2023/06/01 11:46:22;;;;;;;6.15;5.30;;;;;;;;;;5067663;28;20123;-49
2023/06/01 11:49:05;;;;;;;6.10;4.97;;;30.00;99.90;;;;;;5067612;28;20480;-52
2023/06/01 11:51:42;;;;;;;9.15;6.30;;;29.50;99.90;;;;;;5038673;28;20125;-51
2023/06/01 11:54:08;;;;;;;6.82;5.15;;;29.20;99.90;;;;;;5067479;28;20969;-48
2023/06/01 11:56:36;;;;;;;7.05;5.53;;;28.70;99.90;;;;;;5069031;28;20041;-51
2023/06/01 11:59:09;;;;;;;5.55;4.63;;;28.70;99.90;;;;;;5066561;28;20173;-54
2023/06/01 12:01:41;;;;;;;6.03;4.97;;;29.10;99.90;;;;;;5069522;28;20062;-51
2023/06/01 12:04:18;;;;;;;5.95;4.40;;;29.10;99.90;;;;;;5068595;28;20043;-51
2023/06/01 12:06:45;;;;;;;5.85;5.25;;;29.10;99.90;;;;;;5068399;28;20392;-50
2023/06/01 12:09:13;;;;;;;6.32;5.40;;;29.50;99.90;;;;;;5068651;28;20059;-51
2023/06/01 12:11:40;;;;;;;5.47;4.63;;;29.70;99.90;;;;;;5068318;28;20025;-48
2023/06/01 12:14:06;;;;;;;8.02;5.30;;;29.60;99.90;;;;;;5080257;28;20040;-51
2023/06/01 12:16:51;;;;;;;7.10;5.63;;;29.50;99.90;;;;;;5067572;28;20041;-50
2023/06/01 12:19:17;;;;;;;6.85;4.90;;;29.60;99.90;;;;;;5071057;28;20028;-52
2023/06/01 12:21:50;;;;;;;7.28;4.72;;;29.50;99.90;;;;;;5068344;28;20063;-50
2023/06/01 12:24:37;;;;;;;5.72;4.80;;;29.50;99.90;;;;;;5067962;28;20025;-51
2023/06/01 12:27:13;;;;;;;6.25;4.68;;;;;;;;;;5062112;28;20076;-54
2023/06/01 12:29:43;;;;;;;4.65;3.85;;;;;;;;;;5062716;28;20117;-51
2023/06/01 12:32:11;;;;;;;6.60;4.82;;;30.20;99.90;;;;;;5065471;28;20045;-52
2023/06/01 12:34:38;;;;;;;4.97;4.45;;;30.40;99.90;;;;;;5062890;28;20153;-51
2023/06/01 12:37:13;;;;;;;5.50;4.88;;;;;;;;;;5058067;28;20032;-53
2023/06/01 12:39:41;;;;;;;5.45;4.68;;;;;;;;;;5066046;28;20033;-52
2023/06/01 12:42:08;;;;;;;5.95;4.85;;;;;;;;;;5064511;28;20114;-53
2023/06/01 12:44:34;;;;;;;5.78;5.18;;;;;;;;;;5060579;28;20473;-53
2023/06/01 12:47:01;;;;;;;5.45;4.43;;;;;;;;;;5062425;28;20044;-53
2023/06/01 12:49:27;;;;;;;5.82;4.90;;;;;;;;;;5077581;28;20036;-53
2023/06/01 12:51:54;;;;;;;6.20;5.18;;;;;;;;;;5058734;28;20059;-55
2023/06/01 12:54:20;;;;;;;6.53;4.65;;;;;;;;;;5062924;28;20033;-54
2023/06/01 12:56:49;;;;;;;5.85;4.80;;;;;;;;;;5064935;28;20166;-53
2023/06/01 12:59:16;;;;;;;4.78;4.05;;;;;;;;;;5067017;28;20357;-50
2023/06/01 13:01:43;;;;;;;5.32;4.70;;;;;;;;;;5063949;28;20045;-53
2023/06/01 13:04:09;;;;;;;5.25;4.60;;;;;;;;;;5059399;28;20051;-52
2023/06/01 13:06:37;;;;;;;4.88;4.20;;;;;;;;;;5064355;28;20494;-51
2023/06/01 13:09:03;;;;;;;5.55;4.40;;;;;;;;;;5053837;28;20029;-52